Macallan 15 — 9WRZ5 — position and weather

sailwx.info

Track history (hours):
 
Tides and Currents Weather Stations Pressure Air Temp Water Temp Dewpoint Dewpoint Depression Visibility Wind Speed Wind Dir Waves Ship Positions

Macallan 15

Last reported at 2018-Mar-23 22:31 UTC. Time now 2018-Apr-24 02:45 UTC.
Position S 06°50' E 112°42'.
Warning: this ship's position is 31 days out of date.

Length 30 m; draft 3.8 m.

Type: Tug. MMSI: 533170388.

Date/timePositionNaut miles runAvg speedWind from/ knotsBaromVisibWave heightAir tempDewpointWater temp
2018-Mar-23 22:31S 06°50' E 112°42'0 2.4
2018-Mar-23 22:28S 06°51' E 112°42'6 5.3
2018-Mar-23 21:19S 06°57' E 112°42'2 6.9
2018-Mar-23 21:00S 06°59' E 112°41'3 6.8
2018-Mar-23 20:31S 07°02' E 112°40'3 6.5
2018-Mar-23 20:00S 07°05' E 112°39'2 0.2
2018-Mar-23 10:03S 07°07' E 112°39'0 0.0
2018-Mar-23 08:18S 07°07' E 112°39'0 0.0
2018-Mar-23 07:51S 07°07' E 112°39'0 0.0
2018-Mar-23 07:27S 07°07' E 112°39'0 0.0
2018-Mar-23 02:03S 07°07' E 112°39'0 0.0
2018-Mar-23 01:48S 07°07' E 112°39'0 0.0
2018-Mar-23 00:27S 07°07' E 112°39'0 0.0
2018-Mar-22 22:29S 07°07' E 112°39'0 0.0
2018-Mar-22 19:12S 07°07' E 112°39'0 0.0
2018-Mar-22 16:23S 07°07' E 112°39'0 0.0
2018-Mar-22 08:41S 07°07' E 112°39'0 0.0
2018-Mar-22 01:20S 07°07' E 112°39'0 0.0
2018-Mar-22 00:53S 07°07' E 112°39'0 0.0
2018-Mar-21 15:38S 07°07' E 112°39'0 0.0
2018-Mar-21 15:29S 07°07' E 112°39'0 0.0
2018-Mar-21 13:44S 07°07' E 112°39'0 0.0
2018-Mar-21 13:23S 07°07' E 112°39'0 0.0
2018-Mar-21 11:09S 07°07' E 112°39'0 0.0
2018-Mar-21 10:58S 07°07' E 112°39'0 0.0
2018-Mar-21 10:29S 07°07' E 112°39'0 0.0
2018-Mar-21 10:00S 07°07' E 112°39'0 0.0
2018-Mar-21 09:30S 07°07' E 112°39'0 0.2
2018-Mar-21 09:00S 07°07' E 112°39'2 0.3
2018-Mar-21 02:40S 07°05' E 112°40'0 0.0
2018-Mar-21 02:25S 07°05' E 112°40'0 0.0
2018-Mar-21 00:19S 07°05' E 112°40'0 0.0
2018-Mar-20 21:40S 07°05' E 112°40'0 0.0
2018-Mar-20 21:13S 07°05' E 112°40'0 0.0
2018-Mar-20 20:55S 07°05' E 112°40'0 0.0
2018-Mar-20 20:01S 07°05' E 112°40'0 0.0
2018-Mar-20 19:55S 07°05' E 112°40'0 0.0
2018-Mar-20 19:04S 07°05' E 112°40'0 0.0
2018-Mar-20 18:49S 07°05' E 112°40'0 0.0
2018-Mar-20 15:43S 07°05' E 112°40'0 0.0
2018-Mar-20 14:05S 07°05' E 112°40'0 0.0
2018-Mar-20 13:59S 07°05' E 112°40'0 0.0
2018-Mar-20 13:29S 07°05' E 112°40'  
Track history (hours):
 
Tides and Currents Weather Stations Pressure Air Temp Water Temp Dewpoint Dewpoint Depression Visibility Wind Speed Wind Dir Waves Ship Positions

Macallan 15

Last reported at 2018-Mar-23 22:31 UTC. Time now 2018-Apr-24 02:45 UTC.
Position S 06°50' E 112°42'.
Warning: this ship's position is 31 days out of date.

Length 30 m; draft 3.8 m.

Type: Tug. MMSI: 533170388.

Date/timePositionNaut miles runAvg speedWind from/ knotsBaromVisibWave heightAir tempDewpointWater temp
2018-Mar-23 22:31S 06°50' E 112°42'0 2.4
2018-Mar-23 22:28S 06°51' E 112°42'6 5.3
2018-Mar-23 21:19S 06°57' E 112°42'2 6.9
2018-Mar-23 21:00S 06°59' E 112°41'3 6.8
2018-Mar-23 20:31S 07°02' E 112°40'3 6.5
2018-Mar-23 20:00S 07°05' E 112°39'2 0.2
2018-Mar-23 10:03S 07°07' E 112°39'0 0.0
2018-Mar-23 08:18S 07°07' E 112°39'0 0.0
2018-Mar-23 07:51S 07°07' E 112°39'0 0.0
2018-Mar-23 07:27S 07°07' E 112°39'0 0.0
2018-Mar-23 02:03S 07°07' E 112°39'0 0.0
2018-Mar-23 01:48S 07°07' E 112°39'0 0.0
2018-Mar-23 00:27S 07°07' E 112°39'0 0.0
2018-Mar-22 22:29S 07°07' E 112°39'0 0.0
2018-Mar-22 19:12S 07°07' E 112°39'0 0.0
2018-Mar-22 16:23S 07°07' E 112°39'0 0.0
2018-Mar-22 08:41S 07°07' E 112°39'0 0.0
2018-Mar-22 01:20S 07°07' E 112°39'0 0.0
2018-Mar-22 00:53S 07°07' E 112°39'0 0.0
2018-Mar-21 15:38S 07°07' E 112°39'0 0.0
2018-Mar-21 15:29S 07°07' E 112°39'0 0.0
2018-Mar-21 13:44S 07°07' E 112°39'0 0.0
2018-Mar-21 13:23S 07°07' E 112°39'0 0.0
2018-Mar-21 11:09S 07°07' E 112°39'0 0.0
2018-Mar-21 10:58S 07°07' E 112°39'0 0.0
2018-Mar-21 10:29S 07°07' E 112°39'0 0.0
2018-Mar-21 10:00S 07°07' E 112°39'0 0.0
2018-Mar-21 09:30S 07°07' E 112°39'0 0.2
2018-Mar-21 09:00S 07°07' E 112°39'2 0.3
2018-Mar-21 02:40S 07°05' E 112°40'0 0.0
2018-Mar-21 02:25S 07°05' E 112°40'0 0.0
2018-Mar-21 00:19S 07°05' E 112°40'0 0.0
2018-Mar-20 21:40S 07°05' E 112°40'0 0.0
2018-Mar-20 21:13S 07°05' E 112°40'0 0.0
2018-Mar-20 20:55S 07°05' E 112°40'0 0.0
2018-Mar-20 20:01S 07°05' E 112°40'0 0.0
2018-Mar-20 19:55S 07°05' E 112°40'0 0.0
2018-Mar-20 19:04S 07°05' E 112°40'0 0.0
2018-Mar-20 18:49S 07°05' E 112°40'0 0.0
2018-Mar-20 15:43S 07°05' E 112°40'0 0.0
2018-Mar-20 14:05S 07°05' E 112°40'0 0.0
2018-Mar-20 13:59S 07°05' E 112°40'0 0.0
2018-Mar-20 13:29S 07°05' E 112°40'  

Dump ship's entire track history